createdAt,value
2019-03-20T00:01:07.843Z,84.87
2019-03-20T00:03:38.144Z,102.60
2019-03-20T00:06:08.557Z,105.60
2019-03-20T00:08:39.002Z,106.60
2019-03-20T00:11:09.413Z,112.33
2019-03-20T00:13:39.863Z,110.53
2019-03-20T00:16:10.257Z,106.07
2019-03-20T00:18:40.697Z,87.20
2019-03-20T00:21:11.178Z,86.00
2019-03-20T00:23:41.595Z,74.13
2019-03-20T00:26:12.013Z,70.57
2019-03-20T00:28:42.409Z,70.67
2019-03-20T00:31:14.914Z,74.33
2019-03-20T00:33:45.421Z,68.70
2019-03-20T00:36:15.977Z,65.20
2019-03-20T00:38:46.375Z,67.93
2019-03-20T00:41:16.854Z,67.27
2019-03-20T00:43:47.262Z,66.23
2019-03-20T00:46:17.656Z,67.60
2019-03-20T00:48:49.085Z,87.33
2019-03-20T00:51:19.515Z,116.37
2019-03-20T00:53:50.064Z,147.80
2019-03-20T00:56:20.483Z,146.33
2019-03-20T00:58:50.954Z,119.20
2019-03-20T01:01:21.384Z,108.67
2019-03-20T01:03:51.945Z,93.93
2019-03-20T01:06:22.370Z,83.13
2019-03-20T01:08:52.815Z,79.67
2019-03-20T01:11:23.215Z,70.37
2019-03-20T01:13:53.662Z,69.80
2019-03-20T01:16:24.443Z,72.67
2019-03-20T01:18:55.897Z,66.10
2019-03-20T01:21:26.278Z,65.80
2019-03-20T01:23:56.685Z,75.27
2019-03-20T01:26:27.108Z,74.77
2019-03-20T01:28:57.535Z,71.53
2019-03-20T01:31:27.926Z,82.00
2019-03-20T01:33:58.323Z,83.20
2019-03-20T01:36:28.780Z,90.93
2019-03-20T01:38:59.211Z,77.43
2019-03-20T01:41:37.555Z,78.97
2019-03-20T01:44:01.773Z,74.07
2019-03-20T01:46:32.228Z,80.83
2019-03-20T01:49:02.723Z,79.60
2019-03-20T01:51:33.230Z,74.77
2019-03-20T01:54:03.621Z,78.77
2019-03-20T01:56:34.096Z,76.50
2019-03-20T01:59:04.519Z,89.53
2019-03-20T02:01:35.064Z,66.30
2019-03-20T02:04:05.479Z,75.47
2019-03-20T02:06:36.056Z,71.27
2019-03-20T02:09:08.060Z,73.47
2019-03-20T02:11:38.530Z,75.90
2019-03-20T02:14:09.029Z,76.73
2019-03-20T02:16:39.579Z,72.03
2019-03-20T02:19:10.181Z,71.33
2019-03-20T02:21:40.612Z,91.20
2019-03-20T02:24:11.077Z,133.30
2019-03-20T02:26:41.568Z,155.07
2019-03-20T02:29:11.992Z,157.67
2019-03-20T02:31:42.439Z,150.30
2019-03-20T02:34:12.951Z,135.00
2019-03-20T02:36:43.415Z,126.23
2019-03-20T02:39:13.856Z,121.70
2019-03-20T02:41:44.275Z,110.97
2019-03-20T02:44:14.690Z,98.43
2019-03-20T02:46:45.112Z,94.73
2019-03-20T02:49:15.560Z,88.83
2019-03-20T02:51:45.975Z,82.93
2019-03-20T02:54:16.425Z,84.37
2019-03-20T02:56:46.836Z,86.20
2019-03-20T02:59:17.308Z,97.30
2019-03-20T03:01:47.774Z,84.50
2019-03-20T03:04:18.248Z,90.27
2019-03-20T03:06:48.680Z,80.40
2019-03-20T03:09:19.116Z,82.40
2019-03-20T03:11:49.618Z,92.73
2019-03-20T03:14:20.070Z,88.33
2019-03-20T03:16:50.465Z,92.37
2019-03-20T03:19:37.923Z,85.87
2019-03-20T03:22:09.890Z,79.73
2019-03-20T03:24:40.280Z,83.83
2019-03-20T03:27:10.750Z,83.13
2019-03-20T03:29:41.202Z,82.83
2019-03-20T03:32:11.612Z,82.80
2019-03-20T03:34:42.027Z,84.20
2019-03-20T03:37:12.427Z,87.63
2019-03-20T03:39:42.855Z,76.73
2019-03-20T03:42:13.275Z,79.13
2019-03-20T03:44:43.712Z,74.53
2019-03-20T03:47:14.236Z,73.93
2019-03-20T03:49:44.715Z,74.80
2019-03-20T03:52:15.129Z,79.33
2019-03-20T03:54:45.551Z,77.47
2019-03-20T03:57:15.925Z,73.37
2019-03-20T03:59:46.394Z,83.67
2019-03-20T04:02:16.800Z,74.20
2019-03-20T04:04:47.245Z,69.87
2019-03-20T04:07:17.691Z,72.63
2019-03-20T04:09:48.188Z,74.43
2019-03-20T04:12:35.492Z,76.00
2019-03-20T04:15:12.817Z,70.83
2019-03-20T04:17:44.669Z,73.73
2019-03-20T04:20:22.472Z,72.90
2019-03-20T04:22:54.220Z,81.03
2019-03-20T04:25:24.744Z,77.10
2019-03-20T04:27:59.673Z,81.70
2019-03-20T04:30:30.078Z,83.40
2019-03-20T04:33:00.538Z,89.13
2019-03-20T04:35:31.096Z,86.03
2019-03-20T04:38:01.996Z,87.70
2019-03-20T04:40:32.511Z,87.87
2019-03-20T04:43:03.028Z,84.93
2019-03-20T04:45:33.616Z,107.43
2019-03-20T04:48:04.100Z,99.57
2019-03-20T04:50:34.554Z,108.63
2019-03-20T04:53:05.010Z,110.13
2019-03-20T04:55:35.405Z,101.60
2019-03-20T04:58:05.838Z,105.70
2019-03-20T05:00:36.440Z,131.70
2019-03-20T05:03:06.872Z,139.93
2019-03-20T05:05:37.303Z,130.40
2019-03-20T05:08:07.821Z,86.90
2019-03-20T05:10:38.590Z,174.63
2019-03-20T05:13:09.108Z,177.20
2019-03-20T05:15:39.590Z,198.57
2019-03-20T05:18:10.245Z,86.43
2019-03-20T05:20:40.760Z,111.70
2019-03-20T05:23:12.757Z,134.80
2019-03-20T05:25:43.179Z,168.03
2019-03-20T05:28:13.582Z,99.87
2019-03-20T05:30:44.085Z,121.67
2019-03-20T05:33:14.719Z,106.47
2019-03-20T05:35:46.652Z,96.03
2019-03-20T05:38:17.137Z,109.13
2019-03-20T05:40:47.587Z,107.47
2019-03-20T05:43:18.371Z,143.57
2019-03-20T05:45:48.885Z,135.07
2019-03-20T05:48:19.333Z,172.63
2019-03-20T05:50:51.393Z,147.43
2019-03-20T05:53:23.312Z,119.90
2019-03-20T05:55:55.309Z,123.40
2019-03-20T05:58:25.761Z,141.33
2019-03-20T06:00:56.705Z,145.20
2019-03-20T06:03:27.369Z,132.27
2019-03-20T06:05:57.810Z,126.60
2019-03-20T06:08:28.359Z,123.30
2019-03-20T06:11:04.949Z,106.20
2019-03-20T06:13:35.473Z,86.03
2019-03-20T06:16:05.939Z,93.83
2019-03-20T06:18:36.583Z,111.40
2019-03-20T06:21:07.148Z,129.83
2019-03-20T06:23:38.019Z,175.97
2019-03-20T06:26:08.858Z,162.90
2019-03-20T06:28:40.871Z,151.50
2019-03-20T06:31:11.672Z,120.97
2019-03-20T06:33:43.722Z,105.53
2019-03-20T06:36:14.246Z,101.10
2019-03-20T06:38:44.892Z,91.77
2019-03-20T06:41:15.333Z,87.80
2019-03-20T06:43:45.737Z,88.77
2019-03-20T06:46:16.145Z,91.90
2019-03-20T06:48:46.601Z,82.17
2019-03-20T06:51:17.144Z,76.27
2019-03-20T06:53:47.555Z,69.30
2019-03-20T06:56:17.982Z,69.63
2019-03-20T06:58:49.944Z,80.80
2019-03-20T07:01:23.588Z,74.63
2019-03-20T07:04:00.080Z,74.13
2019-03-20T07:06:39.489Z,72.43
2019-03-20T07:09:21.627Z,75.00
2019-03-20T07:11:52.072Z,66.20
2019-03-20T07:14:23.480Z,68.83
2019-03-20T07:16:53.945Z,59.27
2019-03-20T07:19:24.438Z,59.63
2019-03-20T07:21:54.854Z,61.53
2019-03-20T07:24:25.296Z,60.03
2019-03-20T07:26:55.810Z,64.63
2019-03-20T07:29:26.225Z,57.90
2019-03-20T07:31:59.731Z,60.67
2019-03-20T07:34:30.257Z,63.23
2019-03-20T07:37:00.744Z,63.80
2019-03-20T07:39:31.340Z,65.47
2019-03-20T07:42:01.746Z,57.97
2019-03-20T07:44:32.253Z,59.83
2019-03-20T07:47:02.711Z,60.77
2019-03-20T07:49:33.221Z,64.47
2019-03-20T07:52:03.741Z,65.40
2019-03-20T07:54:34.206Z,73.17
2019-03-20T07:57:04.616Z,69.97
2019-03-20T07:59:35.071Z,72.33
2019-03-20T08:02:05.478Z,175.47
2019-03-20T08:04:35.943Z,87.23
2019-03-20T08:07:06.348Z,69.30
2019-03-20T08:09:36.909Z,67.83
2019-03-20T08:12:07.397Z,89.63
2019-03-20T08:14:37.879Z,77.27
2019-03-20T08:17:09.805Z,79.33
2019-03-20T08:19:41.808Z,86.03
2019-03-20T08:22:13.823Z,78.43
2019-03-20T08:24:44.228Z,76.77
2019-03-20T08:27:14.705Z,87.07
2019-03-20T08:29:45.192Z,89.40
2019-03-20T08:32:15.725Z,87.90
2019-03-20T08:34:46.137Z,80.43
2019-03-20T08:37:16.564Z,92.30
2019-03-20T08:39:47.090Z,86.87
2019-03-20T08:42:17.958Z,83.80
2019-03-20T08:44:48.442Z,90.20
2019-03-20T08:47:18.947Z,76.47
2019-03-20T08:49:49.491Z,84.40
2019-03-20T08:52:19.930Z,80.87
2019-03-20T08:54:50.425Z,82.33
2019-03-20T08:57:20.834Z,73.43
2019-03-20T08:59:51.270Z,79.30
2019-03-20T09:02:22.153Z,73.07
2019-03-20T09:04:52.541Z,85.00
2019-03-20T09:07:22.949Z,74.70
2019-03-20T09:09:53.398Z,70.53
2019-03-20T09:12:23.804Z,67.53
2019-03-20T09:14:54.270Z,66.87
2019-03-20T09:17:24.699Z,58.67
2019-03-20T09:19:55.488Z,63.23
2019-03-20T09:22:25.991Z,56.60
2019-03-20T09:24:56.385Z,125.90
2019-03-20T09:27:26.790Z,64.43
2019-03-20T09:29:57.227Z,61.63
2019-03-20T09:32:27.667Z,60.63
2019-03-20T09:34:58.137Z,55.37
2019-03-20T09:37:28.551Z,57.80
2019-03-20T09:39:58.922Z,59.33
2019-03-20T09:42:29.343Z,58.60
2019-03-20T09:44:59.779Z,53.77
2019-03-20T09:47:30.243Z,58.80
2019-03-20T09:50:01.228Z,51.10
2019-03-20T09:52:31.620Z,56.10
2019-03-20T09:55:02.008Z,50.67
2019-03-20T09:57:32.491Z,54.27
2019-03-20T10:00:02.897Z,61.43
2019-03-20T10:02:33.378Z,55.50
2019-03-20T10:05:04.920Z,49.57
2019-03-20T10:07:35.315Z,48.53
2019-03-20T10:10:08.930Z,45.73
2019-03-20T10:12:39.377Z,38.20
2019-03-20T10:15:12.670Z,48.13
2019-03-20T10:17:43.090Z,65.00
2019-03-20T10:20:18.080Z,69.03
2019-03-20T10:22:48.504Z,77.60
2019-03-20T10:25:18.951Z,70.73
2019-03-20T10:27:51.717Z,70.30
2019-03-20T10:30:23.860Z,70.97
2019-03-20T10:32:54.259Z,64.83
2019-03-20T10:35:24.661Z,67.83
2019-03-20T10:37:55.092Z,66.53
2019-03-20T10:40:27.704Z,60.60
2019-03-20T10:43:00.330Z,67.50
2019-03-20T10:45:33.034Z,77.97
2019-03-20T10:48:04.971Z,76.50
2019-03-20T10:50:35.404Z,74.07
2019-03-20T10:53:05.852Z,59.87
2019-03-20T10:55:36.286Z,56.77
2019-03-20T10:58:06.727Z,61.40
2019-03-20T11:00:37.319Z,56.83
2019-03-20T11:03:07.735Z,61.40
2019-03-20T11:05:38.358Z,59.20
2019-03-20T11:08:10.090Z,64.07
2019-03-20T11:10:40.521Z,65.73
2019-03-20T11:13:11.150Z,67.67
2019-03-20T11:15:41.594Z,67.57
2019-03-20T11:18:12.025Z,62.33
2019-03-20T11:20:42.466Z,60.47
2019-03-20T11:23:14.470Z,55.67
2019-03-20T11:25:44.845Z,54.63
2019-03-20T11:28:15.248Z,59.33
2019-03-20T11:30:45.681Z,57.90
2019-03-20T11:33:16.157Z,60.27
2019-03-20T11:35:47.118Z,64.87
2019-03-20T11:38:17.552Z,64.97
2019-03-20T11:40:47.980Z,54.23
2019-03-20T11:43:18.453Z,49.13
2019-03-20T11:45:48.849Z,51.33
2019-03-20T11:48:19.279Z,46.70
2019-03-20T11:50:49.767Z,42.70
2019-03-20T11:53:20.298Z,50.87
2019-03-20T11:55:50.772Z,48.80
2019-03-20T11:58:21.262Z,51.63
2019-03-20T12:00:51.681Z,47.43
2019-03-20T12:03:22.291Z,42.00
2019-03-20T12:05:52.840Z,43.83
2019-03-20T12:08:23.352Z,50.97
2019-03-20T12:10:53.781Z,44.87
2019-03-20T12:13:24.300Z,40.30
2019-03-20T12:15:55.278Z,37.00
2019-03-20T12:18:27.022Z,41.33
2019-03-20T12:20:58.485Z,41.23
2019-03-20T12:23:28.990Z,47.77
2019-03-20T12:25:59.449Z,43.80
2019-03-20T12:28:32.378Z,44.23
2019-03-20T12:31:02.804Z,42.77
2019-03-20T12:33:34.316Z,50.93
2019-03-20T12:36:04.740Z,48.07
2019-03-20T12:38:35.316Z,42.47
2019-03-20T12:41:05.750Z,44.73
2019-03-20T12:43:36.184Z,47.97
2019-03-20T12:46:09.572Z,46.33
2019-03-20T12:48:39.957Z,47.10
2019-03-20T12:51:10.488Z,48.47
2019-03-20T12:53:40.909Z,47.20
2019-03-20T12:56:11.387Z,53.90
2019-03-20T12:58:41.829Z,50.27
2019-03-20T13:01:12.673Z,44.40
2019-03-20T13:04:01.281Z,55.13
2019-03-20T13:06:36.074Z,55.47
2019-03-20T13:09:07.782Z,57.07
2019-03-20T13:11:38.229Z,54.57
2019-03-20T13:14:11.609Z,60.27
2019-03-20T13:16:43.539Z,67.23
2019-03-20T13:19:15.491Z,83.47
2019-03-20T13:21:47.609Z,58.17
2019-03-20T13:24:18.079Z,60.57
2019-03-20T13:26:48.544Z,64.60
2019-03-20T13:29:20.053Z,68.43
2019-03-20T13:31:50.441Z,55.20
2019-03-20T13:34:22.508Z,60.63
2019-03-20T13:36:52.977Z,58.83
2019-03-20T13:39:23.435Z,57.10
2019-03-20T13:41:53.886Z,62.93
2019-03-20T13:44:24.295Z,54.07
2019-03-20T13:46:56.560Z,60.23
2019-03-20T13:49:27.912Z,56.27
2019-03-20T13:52:10.742Z,58.30
2019-03-20T13:54:33.714Z,62.60
2019-03-20T13:57:04.129Z,61.97
2019-03-20T13:59:34.653Z,56.77
2019-03-20T14:02:05.028Z,63.70
2019-03-20T14:04:35.469Z,57.10
2019-03-20T14:07:06.624Z,72.93
2019-03-20T14:09:37.076Z,69.40
2019-03-20T14:12:07.506Z,62.87
2019-03-20T14:14:38.015Z,61.20
2019-03-20T14:17:08.434Z,56.47
2019-03-20T14:19:38.932Z,61.97
2019-03-20T14:22:10.701Z,59.80
2019-03-20T14:24:41.120Z,60.57
2019-03-20T14:27:11.584Z,46.47
2019-03-20T14:29:42.010Z,51.07
2019-03-20T14:32:15.425Z,54.53
2019-03-20T14:34:46.000Z,45.20
2019-03-20T14:37:16.435Z,51.43
2019-03-20T14:39:46.979Z,47.27
2019-03-20T14:42:18.000Z,55.90
2019-03-20T14:44:51.787Z,58.53
2019-03-20T14:47:23.982Z,61.57
2019-03-20T14:49:55.330Z,53.30
2019-03-20T14:52:25.741Z,47.57
2019-03-20T14:54:57.707Z,53.60
2019-03-20T14:57:28.165Z,52.23
2019-03-20T15:00:03.066Z,53.73
2019-03-20T15:02:35.044Z,52.30
2019-03-20T15:05:12.339Z,55.93
2019-03-20T15:07:42.862Z,56.60
2019-03-20T15:10:24.252Z,54.30
2019-03-20T15:12:55.258Z,56.60
2019-03-20T15:15:44.015Z,60.53
2019-03-20T15:18:14.610Z,49.00
2019-03-20T15:20:45.113Z,55.27
2019-03-20T15:23:17.316Z,54.30
2019-03-20T15:25:47.853Z,57.90
2019-03-20T15:28:18.425Z,90.57
2019-03-20T15:30:49.408Z,72.80
2019-03-20T15:33:21.436Z,82.30
2019-03-20T15:35:54.115Z,71.40
2019-03-20T15:38:27.662Z,67.63
2019-03-20T15:41:01.412Z,72.83
2019-03-20T15:43:31.867Z,64.57
2019-03-20T15:46:05.454Z,64.70
2019-03-20T15:48:35.898Z,69.70
2019-03-20T15:51:07.762Z,75.43
2019-03-20T15:53:41.259Z,69.33
2019-03-20T15:56:13.254Z,81.23
2019-03-20T15:58:44.917Z,83.80
2019-03-20T16:01:20.800Z,81.43
2019-03-20T16:03:53.995Z,80.40
2019-03-20T16:06:27.474Z,76.47
2019-03-20T16:09:02.239Z,75.97
2019-03-20T16:11:35.359Z,87.10
2019-03-20T16:14:07.944Z,83.60
2019-03-20T16:16:39.581Z,99.67
2019-03-20T16:19:14.394Z,72.93
2019-03-20T16:21:46.562Z,75.67
2019-03-20T16:24:20.604Z,72.73
2019-03-20T16:26:51.142Z,80.37
2019-03-20T16:29:27.430Z,85.47
2019-03-20T16:31:59.638Z,91.90
2019-03-20T16:34:32.167Z,122.37
2019-03-20T16:37:02.886Z,98.07
2019-03-20T16:39:33.414Z,103.87
2019-03-20T16:42:09.428Z,96.30
2019-03-20T16:44:59.017Z,79.73
2019-03-20T16:47:30.785Z,83.57
2019-03-20T16:50:01.387Z,67.40
2019-03-20T16:52:40.421Z,66.60
2019-03-20T16:55:13.218Z,61.23
2019-03-20T16:57:43.677Z,69.77
2019-03-20T17:00:18.805Z,61.47
2019-03-20T17:02:54.993Z,55.40
2019-03-20T17:05:34.857Z,71.90
2019-03-20T17:08:06.129Z,73.97
2019-03-20T17:13:35.763Z,59.07
2019-03-20T17:16:06.247Z,72.27
2019-03-20T17:18:40.084Z,73.83
2019-03-20T17:21:10.647Z,63.63
2019-03-20T17:26:42.780Z,59.97
2019-03-20T17:29:15.870Z,57.97
2019-03-20T17:31:48.197Z,57.17
2019-03-20T17:34:21.294Z,49.70
2019-03-20T17:36:51.810Z,58.07
2019-03-20T17:39:25.378Z,55.00
2019-03-20T17:41:57.435Z,56.00
2019-03-20T17:47:19.310Z,52.17
2019-03-20T17:49:49.906Z,55.73
2019-03-20T17:52:21.495Z,61.33
2019-03-20T17:54:52.269Z,57.43
2019-03-20T17:57:24.334Z,53.83
2019-03-20T17:59:55.341Z,56.47
2019-03-20T18:02:28.858Z,64.53
2019-03-20T18:04:59.417Z,61.57
2019-03-20T18:07:31.422Z,62.43
2019-03-20T18:10:07.497Z,54.83
2019-03-20T18:12:56.836Z,52.73
2019-03-20T18:15:38.644Z,56.07
2019-03-20T18:18:12.265Z,56.33
2019-03-20T18:20:45.628Z,54.13
2019-03-20T18:23:25.996Z,61.13
2019-03-20T18:25:58.245Z,56.17
2019-03-20T18:31:21.655Z,50.60
2019-03-20T18:33:52.134Z,56.60
2019-03-20T18:36:27.973Z,41.10
2019-03-20T18:39:01.515Z,43.67
2019-03-20T18:41:32.068Z,46.03
2019-03-20T18:49:36.047Z,56.60
2019-03-20T18:52:11.939Z,49.30
2019-03-20T18:54:42.663Z,49.03
2019-03-20T18:57:27.687Z,45.97
2019-03-20T19:00:13.219Z,40.50
2019-03-20T19:02:46.316Z,42.17
2019-03-20T19:05:22.917Z,46.43
2019-03-20T19:07:57.579Z,46.43
2019-03-20T19:10:34.975Z,42.43
2019-03-20T19:13:05.697Z,41.07
2019-03-20T19:15:40.253Z,49.30
2019-03-20T19:18:14.595Z,47.20
2019-03-20T19:20:48.599Z,44.37
2019-03-20T19:23:31.186Z,41.57
2019-03-20T19:26:05.036Z,38.57
2019-03-20T19:28:36.820Z,35.60
2019-03-20T19:31:07.335Z,33.50
2019-03-20T19:33:38.901Z,27.23
2019-03-20T19:36:14.797Z,29.13
2019-03-20T19:38:47.232Z,27.90
2019-03-20T19:41:19.367Z,26.17
2019-03-20T19:44:04.918Z,24.63
2019-03-20T19:46:33.593Z,28.67
2019-03-20T19:49:07.272Z,27.73
2019-03-20T19:54:41.135Z,25.50
2019-03-20T19:57:15.481Z,26.73
2019-03-20T20:03:24.090Z,22.70
2019-03-20T20:05:58.055Z,29.57
2019-03-20T20:08:31.721Z,27.07
2019-03-20T20:11:06.996Z,27.03
2019-03-20T20:13:40.840Z,29.70
2019-03-20T20:16:11.384Z,29.83
2019-03-20T20:18:42.006Z,27.43
2019-03-20T20:21:16.489Z,22.07
2019-03-20T20:23:55.558Z,27.20
2019-03-20T20:26:36.250Z,26.63
2019-03-20T20:29:13.242Z,30.03
2019-03-20T20:31:47.342Z,24.27
2019-03-20T20:34:19.694Z,22.77
2019-03-20T20:36:50.296Z,21.00
2019-03-20T20:39:22.116Z,21.30
2019-03-20T20:41:55.421Z,19.53
2019-03-20T20:44:28.138Z,19.83
2019-03-20T20:46:58.666Z,19.33
2019-03-20T20:49:32.539Z,20.37
2019-03-20T20:52:05.516Z,24.23
2019-03-20T20:54:40.386Z,21.57
2019-03-20T20:57:16.956Z,20.80
2019-03-20T20:59:47.438Z,23.43
2019-03-20T21:02:17.918Z,21.33
2019-03-20T21:04:49.404Z,19.67
2019-03-20T21:07:19.825Z,21.43
2019-03-20T21:09:50.296Z,18.90
2019-03-20T21:12:20.804Z,20.47
2019-03-20T21:14:51.344Z,17.57
2019-03-20T21:17:24.939Z,18.27
2019-03-20T21:20:00.106Z,18.97
2019-03-20T21:22:33.587Z,20.60
2019-03-20T21:25:04.414Z,19.80
2019-03-20T21:28:11.763Z,22.40
2019-03-20T21:30:57.295Z,19.30
2019-03-20T21:33:47.198Z,17.53
2019-03-20T21:39:43.971Z,18.33
2019-03-20T21:42:41.493Z,22.90
2019-03-20T21:45:26.830Z,20.10
2019-03-20T21:47:57.343Z,20.30
2019-03-20T21:50:39.692Z,25.07
2019-03-20T21:53:13.236Z,25.23
2019-03-20T21:56:18.448Z,22.27
2019-03-20T21:59:08.460Z,24.50
2019-03-20T22:01:59.982Z,26.57
2019-03-20T22:04:30.473Z,24.40
2019-03-20T22:07:10.261Z,29.57
2019-03-20T22:09:52.336Z,26.37
2019-03-20T22:12:34.740Z,26.53
2019-03-20T22:15:08.355Z,26.40
2019-03-20T22:17:59.546Z,27.57
2019-03-20T22:20:39.062Z,28.07
2019-03-20T22:23:34.642Z,23.40
2019-03-20T22:26:17.047Z,22.13
2019-03-20T22:28:59.309Z,21.27
2019-03-20T22:31:31.858Z,22.33
2019-03-20T22:34:24.649Z,22.87
2019-03-20T22:36:55.115Z,22.50
2019-03-20T22:39:43.748Z,25.67
2019-03-20T22:42:20.241Z,18.43
2019-03-20T22:45:13.431Z,20.47
2019-03-20T22:48:03.528Z,18.57
2019-03-20T22:50:37.116Z,19.13
2019-03-20T22:53:27.002Z,18.67
2019-03-20T22:56:18.332Z,17.70
2019-03-20T22:58:48.762Z,16.70
2019-03-20T23:01:25.204Z,18.37
2019-03-20T23:04:04.414Z,16.70
2019-03-20T23:06:36.467Z,18.23
2019-03-20T23:09:08.341Z,17.93
2019-03-20T23:11:38.813Z,17.17
2019-03-20T23:14:09.428Z,17.30
2019-03-20T23:16:39.886Z,23.23
2019-03-20T23:19:10.361Z,19.23
2019-03-20T23:21:40.803Z,16.80
2019-03-20T23:24:20.406Z,17.97
2019-03-20T23:26:48.348Z,19.50
2019-03-20T23:29:18.807Z,19.73
2019-03-20T23:31:50.820Z,17.03
2019-03-20T23:34:21.263Z,18.97
2019-03-20T23:36:51.738Z,15.37
2019-03-20T23:39:22.222Z,17.70
2019-03-20T23:41:52.640Z,17.27
2019-03-20T23:44:25.049Z,19.47
2019-03-20T23:46:55.614Z,20.07
2019-03-20T23:49:28.170Z,19.83
2019-03-20T23:52:00.285Z,20.50
2019-03-20T23:54:38.191Z,20.03
2019-03-20T23:57:12.238Z,20.73
2019-03-20T23:59:42.628Z,18.93
